Time;durP1;ratioP1;P1;durP2;ratioP2;P2;SDS_P1;SDS_P2;PMS_P1;PMS_P2;Temp;Humidity;BMP_temperature;BMP_pressure;BME280_temperature;BME280_humidity;BME280_pressure;Samples;Min_cycle;Max_cycle;Signal;HPM_P1;HPM_P2
2021/04/11 00:02:20;;;;;;;5.15;1.10;;;4.40;85.30;;;;;;5008535;28;20216;-73
2021/04/11 00:04:46;;;;;;;7.65;1.70;;;4.40;85.40;;;;;;5025367;28;20117;-73
2021/04/11 00:07:11;;;;;;;6.07;1.67;;;4.30;85.80;;;;;;5021770;28;20326;-73
2021/04/11 00:09:37;;;;;;;7.25;1.40;;;4.30;86.10;;;;;;5005631;28;20081;-73
2021/04/11 00:12:03;;;;;;;3.70;0.95;;;4.10;86.40;;;;;;5005557;28;20014;-73
2021/04/11 00:14:28;;;;;;;4.88;1.02;;;4.10;86.40;;;;;;5005521;28;20243;-73
2021/04/11 00:16:54;;;;;;;5.68;1.30;;;4.20;86.60;;;;;;5005870;28;20018;-74
2021/04/11 00:19:19;;;;;;;3.80;1.30;;;4.20;86.70;;;;;;4989014;28;20026;-74
2021/04/11 00:21:46;;;;;;;7.15;1.40;;;4.30;86.90;;;;;;5021499;28;20015;-74
2021/04/11 00:24:12;;;;;;;4.60;1.23;;;4.40;87.20;;;;;;5005142;28;20016;-74
2021/04/11 00:26:37;;;;;;;5.90;1.20;;;4.40;86.00;;;;;;5004969;28;20022;-73
2021/04/11 00:29:05;;;;;;;4.68;1.17;;;4.40;86.00;;;;;;5010762;28;20025;-74
2021/04/11 00:31:30;;;;;;;5.90;1.30;;;4.50;85.90;;;;;;5024533;28;20203;-74
2021/04/11 00:33:56;;;;;;;4.60;1.10;;;4.50;85.60;;;;;;5024542;28;20013;-74
2021/04/11 00:36:22;;;;;;;3.88;1.20;;;4.30;85.70;;;;;;5008433;28;20017;-74
2021/04/11 00:38:48;;;;;;;7.22;1.77;;;4.30;86.50;;;;;;5008498;28;20052;-73
2021/04/11 00:41:25;;;;;;;5.85;1.30;;;4.30;86.50;;;;;;5024336;28;20037;-74
2021/04/11 00:43:51;;;;;;;5.03;1.20;;;4.30;86.10;;;;;;5024734;28;20018;-74
2021/04/11 00:46:47;;;;;;;4.15;1.20;;;4.20;86.60;;;;;;5024532;28;20094;-74
2021/04/11 00:49:41;;;;;;;4.68;1.30;;;4.20;87.00;;;;;;5016374;28;20025;-74
2021/04/11 00:52:08;;;;;;;4.90;1.48;;;4.20;86.90;;;;;;5023431;28;20300;-74
2021/04/11 00:54:34;;;;;;;3.63;1.05;;;4.10;88.00;;;;;;5027315;28;20033;-74
2021/04/11 00:57:00;;;;;;;4.13;1.13;;;4.10;87.40;;;;;;5011483;28;20436;-74
2021/04/11 00:59:26;;;;;;;6.95;1.30;;;4.10;87.30;;;;;;5027480;28;20077;-74
2021/04/11 01:01:52;;;;;;;3.28;1.02;;;4.00;87.90;;;;;;5011266;28;20013;-74
2021/04/11 01:04:18;;;;;;;5.53;1.50;;;4.10;87.50;;;;;;5011615;28;20310;-74
2021/04/11 01:06:46;;;;;;;6.07;1.48;;;4.10;87.50;;;;;;5013599;28;20327;-74
2021/04/11 01:09:39;;;;;;;5.70;1.15;;;4.00;87.80;;;;;;5029080;28;20005;-74
2021/04/11 01:12:07;;;;;;;5.20;1.35;;;4.00;87.90;;;;;;5011816;28;20014;-73
2021/04/11 01:14:33;;;;;;;2.17;1.10;;;4.10;88.00;;;;;;5045086;28;20011;-73
2021/04/11 01:16:59;;;;;;;3.92;1.08;;;4.20;87.80;;;;;;5027267;28;20013;-74
2021/04/11 01:19:30;;;;;;;4.70;1.48;;;4.20;87.70;;;;;;5027087;28;20092;-74
2021/04/11 01:22:17;;;;;;;4.57;1.40;;;4.20;87.70;;;;;;5010746;28;20021;-74
2021/04/11 01:24:51;;;;;;;4.38;1.20;;;4.20;87.80;;;;;;5060069;28;20013;-73
2021/04/11 01:27:21;;;;;;;5.03;1.83;;;4.30;88.00;;;;;;5010403;28;20029;-73
2021/04/11 01:29:47;;;;;;;5.38;1.45;;;4.30;87.50;;;;;;5010665;28;20020;-74
2021/04/11 01:32:13;;;;;;;8.07;2.60;;;4.40;87.20;;;;;;4993817;28;20014;-74
2021/04/11 01:34:42;;;;;;;7.03;1.45;;;4.40;87.20;;;;;;5026900;28;20021;-74
2021/04/11 01:37:08;;;;;;;3.55;1.42;;;4.30;87.10;;;;;;5026880;28;20036;-74
2021/04/11 01:39:37;;;;;;;5.40;1.55;;;4.30;86.90;;;;;;5026504;28;20025;-73
2021/04/11 01:42:04;;;;;;;3.97;1.50;;;4.30;87.00;;;;;;5011513;28;20301;-73
2021/04/11 01:44:32;;;;;;;7.20;1.88;;;4.40;86.70;;;;;;5010365;28;20226;-73
2021/04/11 01:46:58;;;;;;;5.38;1.23;;;4.50;86.40;;;;;;5026452;28;20021;-74
2021/04/11 01:49:24;;;;;;;3.45;1.23;;;4.40;85.90;;;;;;5026539;28;20067;-74
2021/04/11 01:51:58;;;;;;;3.40;1.10;;;4.40;85.80;;;;;;5010695;28;20024;-74
2021/04/11 01:54:25;;;;;;;6.50;1.52;;;4.40;85.80;;;;;;5027501;28;20025;-73
2021/04/11 01:56:50;;;;;;;3.45;1.33;;;4.40;85.50;;;;;;4994591;28;20087;-73
2021/04/11 01:59:28;;;;;;;3.67;1.10;;;4.50;85.40;;;;;;4990428;28;20014;-73
2021/04/11 02:01:54;;;;;;;4.05;1.23;;;4.60;85.10;;;;;;5024470;28;20060;-74
2021/04/11 02:04:20;;;;;;;5.20;1.30;;;4.60;84.60;;;;;;5040625;28;20009;-73
2021/04/11 02:06:56;;;;;;;4.32;1.20;;;4.50;84.50;;;;;;5025053;28;20111;-73
2021/04/11 02:09:30;;;;;;;6.85;1.65;;;4.50;84.40;;;;;;5030496;28;20018;-73
2021/04/11 02:11:57;;;;;;;3.17;1.40;;;4.50;84.20;;;;;;5032621;28;20018;-74
2021/04/11 02:14:22;;;;;;;4.72;1.13;;;4.60;84.10;;;;;;5030856;28;20002;-73
2021/04/11 02:16:48;;;;;;;6.53;1.30;;;4.60;83.70;;;;;;5030442;28;20017;-73
2021/04/11 02:19:19;;;;;;;5.20;1.23;;;4.60;83.70;;;;;;5021830;28;20010;-74
2021/04/11 02:21:45;;;;;;;6.60;1.58;;;4.50;83.60;;;;;;5012321;28;20218;-74
2021/04/11 02:24:11;;;;;;;5.68;1.50;;;4.40;83.90;;;;;;4991462;28;20018;-74
2021/04/11 02:26:37;;;;;;;7.57;1.75;;;4.40;83.60;;;;;;5022409;28;20033;-74
2021/04/11 02:29:08;;;;;;;4.55;1.40;;;4.40;83.60;;;;;;5006532;28;20048;-74
2021/04/11 02:31:34;;;;;;;3.15;1.20;;;4.40;83.20;;;;;;5009159;28;20073;-74
2021/04/11 02:34:02;;;;;;;2.60;1.00;;;4.40;83.50;;;;;;5022518;28;20017;-73
2021/04/11 02:36:38;;;;;;;5.97;1.30;;;4.40;83.20;;;;;;5006206;28;20018;-74
2021/04/11 02:39:10;;;;;;;3.47;0.95;;;4.40;82.80;;;;;;5023823;28;20078;-74
2021/04/11 02:41:35;;;;;;;2.42;0.80;;;4.40;82.70;;;;;;5023618;28;20021;-74
2021/04/11 02:44:01;;;;;;;3.65;1.00;;;4.50;82.40;;;;;;5009387;28;20212;-74
2021/04/11 02:46:27;;;;;;;6.22;1.40;;;4.40;82.20;;;;;;5025730;28;20081;-74
2021/04/11 02:48:54;;;;;;;6.93;1.50;;;4.50;82.00;;;;;;5009393;28;20063;-74
2021/04/11 02:51:23;;;;;;;6.60;1.40;;;4.40;81.70;;;;;;5005924;28;20022;-74
2021/04/11 02:53:50;;;;;;;3.78;1.15;;;4.30;81.80;;;;;;5024371;28;20005;-74
2021/04/11 02:56:16;;;;;;;4.47;1.20;;;4.30;81.70;;;;;;5026905;28;20044;-73
2021/04/11 02:58:42;;;;;;;5.07;1.10;;;4.30;81.50;;;;;;5027528;28;20017;-73
2021/04/11 03:01:11;;;;;;;6.10;1.30;;;4.30;81.40;;;;;;4993463;28;20013;-74
2021/04/11 03:03:37;;;;;;;4.93;1.30;;;4.30;81.70;;;;;;5009395;28;20012;-73
2021/04/11 03:06:12;;;;;;;5.90;1.42;;;4.20;81.90;;;;;;5043171;28;20029;-73
2021/04/11 03:08:38;;;;;;;5.05;1.33;;;4.20;81.90;;;;;;5010084;28;20010;-73
2021/04/11 03:11:21;;;;;;;3.80;1.30;;;4.20;82.00;;;;;;4993158;28;20048;-73
2021/04/11 03:13:47;;;;;;;4.70;1.17;;;4.20;81.60;;;;;;5043518;28;20005;-73
2021/04/11 03:16:13;;;;;;;4.32;1.23;;;4.20;81.60;;;;;;5013689;28;20040;-73
2021/04/11 03:18:40;;;;;;;4.55;1.13;;;4.20;81.90;;;;;;5031939;28;20025;-74
2021/04/11 03:21:06;;;;;;;3.63;0.82;;;4.20;81.60;;;;;;5012075;28;20010;-74
2021/04/11 03:23:32;;;;;;;3.80;1.08;;;4.20;81.30;;;;;;5031237;28;20019;-74
2021/04/11 03:26:02;;;;;;;3.92;1.20;;;4.30;81.00;;;;;;5031425;28;20025;-74
2021/04/11 03:28:30;;;;;;;4.80;1.50;;;4.30;80.80;;;;;;5015279;28;20013;-74
2021/04/11 03:31:00;;;;;;;5.18;1.40;;;4.30;80.60;;;;;;5031412;28;20021;-74
2021/04/11 03:33:25;;;;;;;5.22;1.30;;;4.30;80.20;;;;;;5031546;28;20089;-74
2021/04/11 03:35:51;;;;;;;6.22;1.42;;;4.30;79.70;;;;;;5031631;28;20026;-74
2021/04/11 03:38:19;;;;;;;4.10;0.93;;;4.40;79.60;;;;;;5015090;28;20337;-74
2021/04/11 03:40:45;;;;;;;4.72;1.20;;;4.40;79.00;;;;;;5015114;28;20013;-74
2021/04/11 03:43:21;;;;;;;6.75;1.45;;;4.40;78.50;;;;;;5031811;28;20039;-74
2021/04/11 03:45:46;;;;;;;3.90;1.00;;;4.40;78.50;;;;;;5015627;28;20132;-74
2021/04/11 03:48:19;;;;;;;6.20;1.20;;;4.50;78.10;;;;;;5031893;28;20010;-74
2021/04/11 03:50:48;;;;;;;4.88;1.02;;;4.60;77.50;;;;;;5031941;28;20006;-74
2021/04/11 03:53:21;;;;;;;3.15;1.20;;;4.60;76.80;;;;;;5015744;28;20005;-73
2021/04/11 03:55:47;;;;;;;3.88;1.00;;;4.60;76.40;;;;;;5015318;28;20025;-73
2021/04/11 03:58:34;;;;;;;4.63;0.88;;;4.70;76.00;;;;;;5015419;28;20073;-74
2021/04/11 04:01:06;;;;;;;4.07;1.27;;;4.70;75.60;;;;;;5031682;28;20021;-74
2021/04/11 04:03:32;;;;;;;;;;;4.80;75.00;;;;;;5015810;28;20013;-74
2021/04/11 04:06:06;;;;;;;3.17;0.85;;;4.90;74.60;;;;;;5015099;28;19924;-74
2021/04/11 04:08:32;;;;;;;5.05;1.10;;;4.90;74.30;;;;;;5015752;28;20322;-74
2021/04/11 04:11:35;;;;;;;5.25;1.20;;;4.90;74.40;;;;;;4994935;28;20018;-74
2021/04/11 04:14:29;;;;;;;7.93;1.38;;;5.00;73.90;;;;;;5044552;28;20014;-74
2021/04/11 04:17:28;;;;;;;6.15;1.40;;;5.10;73.30;;;;;;5029270;28;20013;-74
2021/04/11 04:20:32;;;;;;;5.15;1.10;;;5.10;72.90;;;;;;5042061;28;20010;-74
2021/04/11 04:23:27;;;;;;;5.47;1.35;;;5.10;72.20;;;;;;5013671;28;20357;-74
2021/04/11 04:26:30;;;;;;;4.60;1.20;;;5.10;72.40;;;;;;5033340;28;20021;-74
2021/04/11 04:29:18;;;;;;;5.32;1.08;;;5.30;71.70;;;;;;5060877;28;20005;-74
2021/04/11 04:32:02;;;;;;;4.40;1.10;;;5.40;70.80;;;;;;5028085;28;20029;-73
2021/04/11 04:35:05;;;;;;;5.13;1.17;;;5.30;69.40;;;;;;5028033;28;20037;-74
2021/04/11 04:37:52;;;;;;;5.75;0.98;;;5.50;69.20;;;;;;5030332;28;20006;-74
2021/04/11 04:40:33;;;;;;;5.80;0.80;;;5.50;69.00;;;;;;5028448;28;20014;-73
2021/04/11 04:43:03;;;;;;;4.20;0.98;;;5.60;67.80;;;;;;5032263;28;20287;-73
2021/04/11 04:45:45;;;;;;;5.63;1.20;;;5.60;67.30;;;;;;5028468;28;20021;-74
2021/04/11 04:48:31;;;;;;;7.22;1.30;;;5.60;66.90;;;;;;5011396;28;20037;-74
2021/04/11 04:51:06;;;;;;;5.40;1.05;;;5.70;66.80;;;;;;5018592;28;20029;-74
2021/04/11 04:53:52;;;;;;;5.20;1.17;;;5.70;66.50;;;;;;5008114;28;20230;-74
2021/04/11 04:56:20;;;;;;;5.35;1.13;;;5.70;66.60;;;;;;5007773;28;20033;-74
2021/04/11 04:58:58;;;;;;;3.88;1.00;;;5.70;64.30;;;;;;5007787;28;20262;-74
2021/04/11 05:01:31;;;;;;;2.97;0.77;;;5.70;63.30;;;;;;5000032;28;20020;-74
2021/04/11 05:04:02;;;;;;;4.38;1.02;;;5.80;63.70;;;;;;5023683;28;20264;-74
2021/04/11 05:06:39;;;;;;;5.20;1.00;;;5.90;64.40;;;;;;5007053;28;20097;-75
2021/04/11 05:09:14;;;;;;;4.50;1.35;;;5.90;64.90;;;;;;5021661;28;20012;-74
2021/04/11 05:11:40;;;;;;;5.15;1.15;;;5.90;65.30;;;;;;5039929;28;20009;-74
2021/04/11 05:14:13;;;;;;;4.40;1.35;;;5.90;65.40;;;;;;5024975;28;20081;-74
2021/04/11 05:17:09;;;;;;;5.07;0.98;;;5.90;65.60;;;;;;5026205;28;20021;-74
2021/04/11 05:19:40;;;;;;;5.90;1.35;;;5.80;65.70;;;;;;5004392;28;20021;-74
2021/04/11 05:22:47;;;;;;;4.47;1.00;;;5.90;65.40;;;;;;5019119;28;20013;-73
2021/04/11 05:25:30;;;;;;;3.42;0.77;;;5.90;64.40;;;;;;4964663;29;20030;-74
2021/04/11 05:28:15;;;;;;;4.50;0.80;;;6.00;63.50;;;;;;4948920;29;20034;-74
2021/04/11 05:31:10;;;;;;;6.13;1.20;;;6.00;63.00;;;;;;4948594;29;20035;-76
2021/04/11 05:33:35;;;;;;;6.07;1.15;;;6.00;63.00;;;;;;4935126;29;20023;-74
2021/04/11 05:36:18;;;;;;;2.55;0.70;;;6.00;62.80;;;;;;4948417;29;20030;-74
2021/04/11 05:39:06;;;;;;;5.35;1.10;;;5.90;63.00;;;;;;4949693;29;20011;-74
2021/04/11 05:41:37;;;;;;;6.00;1.13;;;6.00;62.20;;;;;;4939550;29;20086;-74
2021/04/11 05:44:14;;;;;;;7.47;1.42;;;5.90;62.40;;;;;;4964526;29;20370;-74
2021/04/11 05:46:52;;;;;;;5.30;1.13;;;6.00;62.80;;;;;;4963927;29;20031;-74
2021/04/11 05:49:26;;;;;;;4.45;1.10;;;6.00;62.50;;;;;;4949900;29;20022;-74
2021/04/11 05:51:56;;;;;;;4.85;1.13;;;5.90;63.30;;;;;;4948917;29;20373;-74
2021/04/11 05:54:32;;;;;;;3.58;1.05;;;5.90;64.10;;;;;;4948636;29;20119;-74
2021/04/11 05:57:10;;;;;;;3.72;1.55;;;5.90;63.80;;;;;;4934341;29;20023;-74
2021/04/11 05:59:49;;;;;;;4.25;1.20;;;5.90;62.60;;;;;;4978704;28;20040;-74
2021/04/11 06:02:52;;;;;;;3.15;1.00;;;6.00;62.60;;;;;;5012312;28;20009;-74
2021/04/11 06:05:32;;;;;;;3.50;1.00;;;6.00;62.30;;;;;;4953027;29;20015;-74
2021/04/11 06:08:04;;;;;;;2.60;0.90;;;6.00;61.70;;;;;;4966081;29;20120;-74
2021/04/11 06:11:03;;;;;;;3.17;0.93;;;5.80;61.50;;;;;;4965865;29;20018;-74
2021/04/11 06:13:36;;;;;;;5.28;1.35;;;5.70;60.40;;;;;;4908547;29;20047;-74
2021/04/11 06:16:10;;;;;;;3.00;1.05;;;5.90;59.90;;;;;;4908429;29;20012;-74
2021/04/11 06:18:42;;;;;;;5.25;1.33;;;6.10;60.10;;;;;;4892992;29;20056;-73
2021/04/11 06:21:17;;;;;;;3.47;1.17;;;6.10;61.90;;;;;;4893097;29;20083;-74
2021/04/11 06:23:56;;;;;;;4.10;1.40;;;6.00;63.60;;;;;;4876480;29;20030;-74
2021/04/11 06:26:49;;;;;;;6.10;1.27;;;6.00;65.10;;;;;;4902903;29;20043;-74
2021/04/11 06:29:18;;;;;;;3.78;1.48;;;6.00;65.30;;;;;;4911125;29;20012;-74
2021/04/11 06:32:00;;;;;;;4.57;1.33;;;5.90;66.60;;;;;;4909029;29;20028;-73
2021/04/11 06:35:01;;;;;;;4.90;1.20;;;5.90;66.90;;;;;;4907213;29;20074;-74
2021/04/11 06:37:27;;;;;;;5.80;1.30;;;5.80;67.90;;;;;;4901036;29;20037;-73
2021/04/11 06:39:53;;;;;;;6.45;1.42;;;5.60;69.50;;;;;;4937594;29;20028;-73
2021/04/11 06:42:53;;;;;;;5.00;1.40;;;5.60;70.70;;;;;;4929850;29;20016;-73
2021/04/11 06:45:28;;;;;;;4.78;1.30;;;5.60;71.60;;;;;;4945334;29;20262;-73
2021/04/11 06:48:18;;;;;;;3.65;1.10;;;5.50;73.50;;;;;;4928866;29;20019;-74
2021/04/11 06:51:22;;;;;;;5.70;1.02;;;5.30;72.00;;;;;;5010824;28;20013;-73
2021/04/11 06:53:59;;;;;;;4.85;0.80;;;5.20;72.90;;;;;;4983321;28;20017;-74
2021/04/11 06:56:47;;;;;;;3.35;0.95;;;5.20;70.60;;;;;;5043218;28;20060;-73
2021/04/11 06:59:57;;;;;;;2.00;0.68;;;5.00;71.70;;;;;;5043334;28;20331;-73
2021/04/11 07:02:41;;;;;;;3.70;0.90;;;4.90;69.90;;;;;;5023052;28;20089;-73
2021/04/11 07:05:18;;;;;;;2.22;0.70;;;4.90;68.20;;;;;;5059019;28;20192;-74
2021/04/11 07:08:08;;;;;;;4.57;1.13;;;5.10;67.50;;;;;;5026434;28;20025;-73
2021/04/11 07:10:56;;;;;;;3.65;1.00;;;5.10;66.20;;;;;;5025783;28;20009;-74
2021/04/11 07:13:45;;;;;;;3.42;0.73;;;5.00;63.80;;;;;;5026470;28;20017;-74
2021/04/11 07:16:44;;;;;;;2.28;0.70;;;5.10;61.50;;;;;;5025570;28;20052;-74
2021/04/11 07:19:17;;;;;;;1.45;0.40;;;5.30;60.30;;;;;;5006003;28;20010;-74
2021/04/11 07:22:04;;;;;;;2.83;0.75;;;5.20;60.70;;;;;;5007618;28;20013;-74
2021/04/11 07:25:07;;;;;;;4.07;0.80;;;5.30;58.60;;;;;;5006422;28;20097;-73
2021/04/11 07:27:44;;;;;;;5.68;1.00;;;5.50;58.40;;;;;;5006335;28;20025;-73
2021/04/11 07:30:31;;;;;;;4.22;1.60;;;5.40;57.40;;;;;;5025226;28;20081;-73
2021/04/11 07:33:24;;;;;;;3.13;0.90;;;5.40;56.80;;;;;;5017477;28;20010;-74
2021/04/11 07:36:12;;;;;;;3.55;0.80;;;5.50;56.30;;;;;;5017419;28;20077;-74
2021/04/11 07:39:07;;;;;;;2.10;0.60;;;5.70;55.50;;;;;;5032773;28;20010;-73
2021/04/11 07:41:41;;;;;;;1.00;0.50;;;5.70;55.00;;;;;;4978892;28;20026;-73
2021/04/11 07:44:22;;;;;;;2.58;0.95;;;5.90;54.70;;;;;;5035927;28;20334;-74
2021/04/11 07:47:16;;;;;;;2.83;0.80;;;5.80;55.10;;;;;;5013926;28;20022;-74
2021/04/11 07:49:42;;;;;;;3.60;1.30;;;5.70;56.70;;;;;;5003334;28;20073;-74
2021/04/11 07:52:12;;;;;;;4.43;1.17;;;5.70;59.40;;;;;;5013990;28;20314;-74
2021/04/11 07:54:56;;;;;;;4.20;1.23;;;5.80;61.80;;;;;;5021826;28;20038;-74
2021/04/11 07:57:37;;;;;;;3.00;0.98;;;5.60;66.10;;;;;;5022131;28;20025;-74
2021/04/11 08:00:26;;;;;;;4.18;1.20;;;5.40;69.80;;;;;;5007453;28;20021;-74
2021/04/11 08:02:52;;;;;;;3.80;1.30;;;5.20;72.30;;;;;;5025691;28;20006;-74
2021/04/11 08:05:41;;;;;;;2.30;0.90;;;5.00;75.80;;;;;;5026224;28;20018;-74
2021/04/11 08:08:44;;;;;;;5.07;1.13;;;4.80;77.80;;;;;;4976971;28;20026;-74
2021/04/11 08:11:19;;;;;;;4.90;1.30;;;4.70;80.10;;;;;;5006208;28;20042;-74
2021/04/11 08:14:01;;;;;;;5.50;1.23;;;4.40;82.80;;;;;;5005734;28;20010;-74
2021/04/11 08:16:39;;;;;;;;;;;4.20;85.10;;;;;;4990215;28;20039;-74
2021/04/11 08:19:13;;;;;;;4.65;1.30;;;4.00;86.60;;;;;;5006936;28;19965;-75
2021/04/11 08:21:54;;;;;;;3.85;1.30;;;4.00;88.20;;;;;;5006992;28;20014;-74
2021/04/11 08:24:25;;;;;;;7.30;1.20;;;3.80;89.50;;;;;;4989925;28;20033;-74
2021/04/11 08:27:10;;;;;;;4.95;1.33;;;3.70;90.20;;;;;;5007812;28;20027;-75
2021/04/11 08:30:02;;;;;;;5.03;1.05;;;3.60;90.80;;;;;;5002537;28;20303;-74
2021/04/11 08:32:58;;;;;;;6.47;1.40;;;3.50;91.60;;;;;;4980017;28;20022;-74
2021/04/11 08:35:42;;;;;;;6.78;1.35;;;3.40;91.80;;;;;;5015405;28;20010;-74
2021/04/11 08:38:14;;;;;;;5.85;1.23;;;3.30;92.50;;;;;;5025709;28;20068;-73
2021/04/11 08:41:04;;;;;;;4.25;1.27;;;3.30;92.30;;;;;;5027240;28;20018;-74
2021/04/11 08:44:03;;;;;;;9.05;1.40;;;3.10;92.90;;;;;;5033245;28;20058;-74
2021/04/11 08:46:59;;;;;;;4.25;1.45;;;3.00;92.90;;;;;;5033338;28;20029;-74
2021/04/11 08:49:25;;;;;;;5.97;1.48;;;2.80;93.40;;;;;;5017105;28;20006;-74
2021/04/11 08:52:06;;;;;;;4.20;1.23;;;2.60;93.80;;;;;;5016113;28;20327;-74
2021/04/11 08:54:38;;;;;;;5.78;1.63;;;2.40;94.20;;;;;;5028753;28;20041;-74
2021/04/11 08:57:09;;;;;;;4.55;1.25;;;2.30;94.50;;;;;;5046473;28;20017;-74
2021/04/11 09:00:02;;;;;;;6.10;1.30;;;2.30;94.70;;;;;;5045840;28;20370;-74
2021/04/11 09:02:52;;;;;;;6.45;1.40;;;2.30;95.00;;;;;;4994653;28;20026;-73
2021/04/11 09:05:46;;;;;;;2.38;0.80;;;2.20;95.30;;;;;;5024603;28;20010;-74
2021/04/11 09:08:22;;;;;;;2.95;1.13;;;2.00;95.40;;;;;;4997129;28;20029;-75
2021/04/11 09:11:27;;;;;;;5.93;1.00;;;1.90;95.60;;;;;;5034330;28;20014;-74
2021/04/11 09:14:30;;;;;;;2.50;0.90;;;1.90;96.10;;;;;;5024624;28;20204;-74
2021/04/11 09:17:17;;;;;;;3.55;0.90;;;2.00;96.20;;;;;;5042946;28;20006;-75
2021/04/11 09:20:10;;;;;;;3.97;1.20;;;1.90;96.10;;;;;;5028317;28;20246;-75
2021/04/11 09:22:44;;;;;;;5.47;1.05;;;1.80;96.20;;;;;;4993375;28;20022;-76
2021/04/11 09:25:15;;;;;;;3.33;1.10;;;1.90;96.60;;;;;;5013747;28;20250;-75
2021/04/11 09:28:02;;;;;;;4.20;0.93;;;2.00;96.60;;;;;;5009397;28;20022;-75
2021/04/11 09:30:52;;;;;;;3.97;1.17;;;2.00;96.40;;;;;;5024310;28;20113;-75
2021/04/11 09:33:32;;;;;;;2.13;0.75;;;2.00;96.60;;;;;;5025302;28;20366;-75
2021/04/11 09:36:31;;;;;;;2.95;0.98;;;2.10;96.60;;;;;;5035583;28;20207;-75
2021/04/11 09:39:11;;;;;;;2.63;0.82;;;2.10;96.30;;;;;;5005191;28;20188;-75
2021/04/11 09:42:25;;;;;;;3.80;0.93;;;2.10;96.40;;;;;;5039181;28;20023;-75
2021/04/11 09:45:12;;;;;;;2.05;0.80;;;2.10;96.30;;;;;;5003022;28;20327;-75
2021/04/11 09:48:05;;;;;;;1.98;0.98;;;2.10;96.40;;;;;;5023503;28;20033;-75
2021/04/11 09:50:31;;;;;;;2.58;1.00;;;2.20;96.40;;;;;;5024703;28;20221;-75
2021/04/11 09:53:21;;;;;;;2.08;1.00;;;2.30;96.60;;;;;;5032911;28;20270;-74
2021/04/11 09:56:03;;;;;;;1.77;0.80;;;2.30;96.30;;;;;;5026691;28;20049;-74
2021/04/11 09:58:54;;;;;;;1.75;0.80;;;2.30;96.30;;;;;;5026792;28;20010;-74
2021/04/11 10:01:30;;;;;;;1.60;0.87;;;2.40;96.40;;;;;;5029832;28;20222;-74
2021/04/11 10:04:14;;;;;;;0.90;0.40;;;2.60;96.30;;;;;;5012439;28;20052;-74
2021/04/11 10:07:37;;;;;;;1.55;0.70;;;2.60;96.00;;;;;;5059781;28;20087;-75
2021/04/11 10:10:21;;;;;;;0.68;0.40;;;2.80;96.20;;;;;;4964360;29;20454;-74
2021/04/11 10:13:09;;;;;;;0.68;0.50;;;2.80;95.70;;;;;;4946984;29;20289;-75
2021/04/11 10:15:53;;;;;;;1.05;0.60;;;2.80;96.00;;;;;;4942723;29;20019;-74
2021/04/11 10:18:51;;;;;;;0.50;0.40;;;2.90;95.70;;;;;;4947266;29;20015;-73
2021/04/11 10:21:16;;;;;;;1.20;0.30;;;3.00;95.50;;;;;;4963514;29;20102;-75
2021/04/11 10:24:00;;;;;;;0.55;0.40;;;3.20;95.30;;;;;;4947952;29;20108;-74
2021/04/11 10:26:51;;;;;;;0.30;0.30;;;3.30;95.10;;;;;;4959555;29;20321;-75
2021/04/11 10:29:18;;;;;;;0.30;0.30;;;3.30;94.90;;;;;;4889167;29;20111;-76
2021/04/11 10:32:21;;;;;;;0.40;0.32;;;3.40;94.70;;;;;;4887888;29;20024;-75
2021/04/11 10:35:03;;;;;;;0.30;0.30;;;3.40;94.60;;;;;;4888145;29;20025;-74
2021/04/11 10:37:39;;;;;;;0.70;0.40;;;3.50;94.40;;;;;;4888359;29;20057;-74
2021/04/11 10:40:07;;;;;;;0.50;0.40;;;3.60;94.20;;;;;;4891733;29;20075;-74
2021/04/11 10:43:08;;;;;;;0.47;0.38;;;3.70;94.20;;;;;;4892191;29;20365;-74
2021/04/11 10:45:43;;;;;;;0.90;0.70;;;3.80;93.90;;;;;;4901797;29;20035;-74
2021/04/11 10:48:37;;;;;;;0.65;0.50;;;3.90;93.70;;;;;;4910114;29;20105;-75
2021/04/11 10:51:21;;;;;;;0.75;0.43;;;3.80;93.90;;;;;;4910512;29;20330;-75
2021/04/11 10:53:49;;;;;;;1.15;0.50;;;3.80;93.70;;;;;;4922061;29;20263;-74
2021/04/11 10:56:44;;;;;;;0.75;0.60;;;3.80;93.80;;;;;;4911691;29;20047;-74
2021/04/11 10:59:29;;;;;;;1.10;0.60;;;3.90;93.90;;;;;;4906030;29;20035;-75
2021/04/11 11:02:14;;;;;;;1.40;0.80;;;4.10;93.50;;;;;;4891354;29;20439;-74
2021/04/11 11:04:48;;;;;;;0.95;0.70;;;4.10;93.70;;;;;;4906946;29;20035;-74
2021/04/11 11:07:40;;;;;;;0.80;0.70;;;4.10;93.80;;;;;;5011665;28;20294;-74
2021/04/11 11:10:24;;;;;;;1.92;0.80;;;4.10;93.70;;;;;;4995855;28;20013;-75
2021/04/11 11:12:52;;;;;;;1.17;0.73;;;4.10;94.00;;;;;;5022716;28;20045;-75
2021/04/11 11:15:40;;;;;;;0.88;0.68;;;4.30;93.60;;;;;;5023178;28;20033;-74
2021/04/11 11:18:34;;;;;;;2.40;0.85;;;4.30;93.80;;;;;;5025602;28;20006;-74
2021/04/11 11:21:40;;;;;;;4.75;1.00;;;4.20;93.80;;;;;;5043928;28;20010;-74
2021/04/11 11:24:15;;;;;;;1.90;0.80;;;4.20;94.00;;;;;;4947267;29;20011;-74
2021/04/11 11:26:58;;;;;;;1.50;0.90;;;4.20;94.10;;;;;;4947456;29;20022;-74
2021/04/11 11:29:39;;;;;;;2.30;0.93;;;4.20;94.10;;;;;;4996777;28;20149;-75
2021/04/11 11:32:07;;;;;;;2.22;1.02;;;4.20;94.50;;;;;;5010423;28;20210;-74
2021/04/11 11:34:40;;;;;;;1.65;0.80;;;4.20;94.30;;;;;;5026834;28;20076;-74
2021/04/11 11:37:34;;;;;;;2.08;1.00;;;4.30;94.30;;;;;;5012139;28;20018;-74
2021/04/11 11:40:25;;;;;;;1.70;0.80;;;4.30;94.00;;;;;;5047834;28;20080;-75
2021/04/11 11:43:16;;;;;;;2.47;0.90;;;4.30;94.00;;;;;;5016649;28;20025;-74
2021/04/11 11:46:17;;;;;;;3.22;1.45;;;4.30;94.00;;;;;;5014603;28;20066;-74
2021/04/11 11:48:54;;;;;;;2.45;1.40;;;4.40;94.00;;;;;;5030421;28;20006;-74
2021/04/11 11:51:29;;;;;;;2.42;1.10;;;4.40;93.90;;;;;;5030377;28;20024;-74
2021/04/11 11:54:12;;;;;;;2.70;1.60;;;4.50;93.70;;;;;;5014035;28;20013;-74
2021/04/11 11:56:42;;;;;;;2.47;1.20;;;4.70;93.50;;;;;;5046686;28;20104;-74
2021/04/11 11:59:33;;;;;;;3.13;1.50;;;4.70;93.40;;;;;;5047090;28;20291;-75
2021/04/11 12:02:08;;;;;;;2.38;1.20;;;4.70;93.40;;;;;;5029732;28;20006;-74
2021/04/11 12:04:49;;;;;;;3.25;1.40;;;4.70;93.40;;;;;;5030207;28;20006;-73
2021/04/11 12:07:22;;;;;;;2.65;1.30;;;4.70;93.60;;;;;;5013418;28;20025;-73
2021/04/11 12:10:26;;;;;;;4.30;1.52;;;4.70;93.50;;;;;;5045869;28;20250;-74
2021/04/11 12:12:57;;;;;;;2.75;1.60;;;4.70;93.60;;;;;;4989916;28;20025;-73
2021/04/11 12:15:37;;;;;;;4.75;1.40;;;4.80;93.30;;;;;;5014033;28;20005;-74
2021/04/11 12:18:08;;;;;;;3.97;1.52;;;4.90;93.30;;;;;;4997536;28;20321;-74
2021/04/11 12:20:41;;;;;;;3.53;1.67;;;4.90;93.20;;;;;;5029237;28;20040;-74
2021/04/11 12:23:36;;;;;;;4.72;1.85;;;5.00;92.90;;;;;;5029440;28;20378;-74
2021/04/11 12:26:13;;;;;;;6.53;2.30;;;5.00;92.90;;;;;;5044523;28;20038;-75
2021/04/11 12:28:40;;;;;;;4.85;2.25;;;5.00;93.10;;;;;;5012840;28;20009;-74
2021/04/11 12:31:29;;;;;;;4.82;2.20;;;5.00;93.20;;;;;;5012348;28;20013;-75
2021/04/11 12:34:03;;;;;;;4.45;2.00;;;5.10;93.20;;;;;;5028654;28;20188;-76
2021/04/11 12:36:43;;;;;;;5.43;2.83;;;5.10;93.20;;;;;;5028954;28;20077;-74
2021/04/11 12:39:21;;;;;;;6.55;2.80;;;5.10;93.20;;;;;;5014212;28;20014;-73
2021/04/11 12:41:56;;;;;;;4.53;2.63;;;5.10;93.30;;;;;;5012544;28;20192;-75
2021/04/11 12:44:33;;;;;;;5.93;2.55;;;5.10;93.30;;;;;;5046403;28;20013;-74
2021/04/11 12:47:13;;;;;;;7.60;3.15;;;5.00;93.80;;;;;;5012055;28;20028;-75
2021/04/11 12:49:58;;;;;;;4.75;2.80;;;5.10;93.70;;;;;;5012654;28;20009;-74
2021/04/11 12:52:50;;;;;;;8.77;3.30;;;5.10;93.60;;;;;;5046539;28;20029;-74
2021/04/11 12:55:22;;;;;;;;;;;5.10;93.60;;;;;;5028954;28;20029;-75
2021/04/11 12:58:28;;;;;;;5.68;3.13;;;5.20;93.80;;;;;;5028646;28;20187;-75
2021/04/11 13:01:30;;;;;;;7.63;3.42;;;5.40;93.50;;;;;;5028244;28;20025;-75
2021/04/11 13:04:03;;;;;;;6.53;2.75;;;5.40;93.40;;;;;;4950377;29;20018;-75
2021/04/11 13:07:08;;;;;;;6.45;3.33;;;5.40;93.40;;;;;;4986889;28;20417;-75
2021/04/11 13:09:52;;;;;;;9.90;3.88;;;5.30;94.00;;;;;;5010072;28;20010;-75
2021/04/11 13:12:32;;;;;;;9.75;4.13;;;5.50;94.00;;;;;;5027411;28;20306;-74
2021/04/11 13:15:08;;;;;;;7.38;3.83;;;5.40;94.00;;;;;;5009548;28;20092;-74
2021/04/11 13:18:01;;;;;;;8.35;4.22;;;5.30;94.40;;;;;;5008884;28;20255;-74
2021/04/11 13:20:36;;;;;;;8.55;4.18;;;5.40;94.40;;;;;;4970374;28;20033;-74
2021/04/11 13:23:13;;;;;;;15.73;5.90;;;5.40;94.70;;;;;;5013495;28;20009;-73
2021/04/11 13:26:00;;;;;;;11.15;4.90;;;5.40;94.70;;;;;;5009608;28;20029;-75
2021/04/11 13:28:30;;;;;;;9.20;4.60;;;5.50;94.50;;;;;;5024656;28;20005;-74
2021/04/11 13:31:09;;;;;;;7.78;5.20;;;5.50;94.50;;;;;;5043473;28;20013;-74
2021/04/11 13:33:46;;;;;;;10.00;5.50;;;5.60;94.40;;;;;;4994262;28;20045;-76
2021/04/11 13:36:29;;;;;;;14.65;6.50;;;5.70;94.30;;;;;;4992105;28;20373;-75
2021/04/11 13:38:57;;;;;;;11.73;5.78;;;5.70;94.40;;;;;;4991805;28;20014;-75
2021/04/11 13:41:35;;;;;;;9.45;5.20;;;5.70;94.50;;;;;;5008515;28;20014;-75
2021/04/11 13:44:13;;;;;;;16.42;7.10;;;5.70;94.60;;;;;;5007687;28;20220;-75
2021/04/11 13:47:01;;;;;;;10.05;6.10;;;5.80;94.50;;;;;;5037739;28;20048;-74
2021/04/11 13:49:34;;;;;;;13.32;6.45;;;5.90;94.30;;;;;;4997922;28;20014;-75
2021/04/11 13:52:08;;;;;;;15.40;6.18;;;6.00;94.10;;;;;;5003639;28;20018;-75
2021/04/11 13:54:47;;;;;;;10.23;5.97;;;6.10;93.90;;;;;;5039553;28;20029;-74
2021/04/11 13:57:49;;;;;;;17.10;7.63;;;6.10;94.40;;;;;;5046746;28;20010;-76
2021/04/11 14:00:30;;;;;;;16.58;6.97;;;6.00;94.20;;;;;;5011632;28;20014;-74